createdAt,value
2019-03-29T00:00:34.183Z,90.68
2019-03-29T00:03:15.159Z,90.09
2019-03-29T00:05:55.501Z,90.54
2019-03-29T00:08:36.349Z,90.67
2019-03-29T00:11:17.015Z,90.25
2019-03-29T00:13:58.023Z,90.62
2019-03-29T00:16:39.003Z,90.66
2019-03-29T00:19:19.579Z,90.50
2019-03-29T00:22:00.264Z,90.70
2019-03-29T00:24:41.359Z,91.12
2019-03-29T00:27:22.028Z,91.15
2019-03-29T00:30:02.183Z,91.22
2019-03-29T00:32:42.767Z,92.09
2019-03-29T00:35:23.752Z,92.54
2019-03-29T00:38:04.106Z,92.33
2019-03-29T00:40:45.324Z,92.20
2019-03-29T00:43:26.162Z,91.92
2019-03-29T00:46:06.863Z,92.07
2019-03-29T00:48:48.022Z,91.67
2019-03-29T00:51:28.306Z,91.88
2019-03-29T00:54:09.811Z,91.58
2019-03-29T00:56:50.775Z,91.20
2019-03-29T00:59:32.263Z,91.41
2019-03-29T01:02:13.103Z,91.86
2019-03-29T01:04:54.859Z,91.88
2019-03-29T01:07:35.805Z,91.41
2019-03-29T01:10:17.364Z,91.32
2019-03-29T01:12:58.314Z,91.64
2019-03-29T01:15:39.161Z,91.63
2019-03-29T01:18:19.492Z,91.91
2019-03-29T01:21:00.046Z,91.70
2019-03-29T01:23:40.765Z,91.68
2019-03-29T01:26:21.654Z,91.46
2019-03-29T01:29:02.692Z,91.71
2019-03-29T01:31:43.563Z,91.41
2019-03-29T01:34:24.541Z,91.71
2019-03-29T01:37:05.113Z,91.26
2019-03-29T01:39:46.145Z,91.12
2019-03-29T01:42:26.776Z,90.97
2019-03-29T01:45:07.414Z,90.17
2019-03-29T01:47:48.134Z,88.96
2019-03-29T01:50:29.018Z,88.23
2019-03-29T01:53:10.078Z,88.25
2019-03-29T01:55:51.575Z,88.66
2019-03-29T01:58:32.518Z,88.16
2019-03-29T02:01:13.479Z,87.39
2019-03-29T02:03:54.122Z,87.39
2019-03-29T02:06:35.084Z,86.92
2019-03-29T02:09:16.378Z,86.27
2019-03-29T02:11:57.659Z,85.48
2019-03-29T02:14:38.924Z,86.35
2019-03-29T02:17:20.212Z,85.01
2019-03-29T02:20:00.940Z,85.40
2019-03-29T02:22:42.203Z,85.83
2019-03-29T02:25:23.094Z,85.00
2019-03-29T02:28:04.380Z,84.15
2019-03-29T02:30:45.647Z,84.21
2019-03-29T02:33:26.969Z,84.54
2019-03-29T02:36:08.205Z,84.07
2019-03-29T02:38:55.810Z,83.14
2019-03-29T02:41:30.762Z,82.54
2019-03-29T02:44:11.727Z,82.67
2019-03-29T02:46:53.786Z,82.19
2019-03-29T02:49:34.601Z,82.53
2019-03-29T02:52:15.952Z,83.05
2019-03-29T02:54:56.824Z,83.09
2019-03-29T02:57:37.532Z,83.52
2019-03-29T03:00:18.444Z,82.93
2019-03-29T03:02:59.413Z,81.97
2019-03-29T03:05:40.366Z,82.69
2019-03-29T03:08:21.150Z,82.20
2019-03-29T03:11:02.285Z,82.04
2019-03-29T03:13:43.584Z,82.54
2019-03-29T03:16:24.207Z,82.46
2019-03-29T03:19:04.847Z,81.72
2019-03-29T03:21:45.904Z,80.34
2019-03-29T03:24:26.764Z,79.90
2019-03-29T03:27:07.436Z,79.61
2019-03-29T03:29:48.533Z,78.70
2019-03-29T03:32:29.059Z,79.73
2019-03-29T03:35:09.459Z,79.40
2019-03-29T03:37:49.832Z,80.19
2019-03-29T03:40:31.252Z,79.31
2019-03-29T03:43:12.847Z,79.53
2019-03-29T03:45:53.522Z,79.75
2019-03-29T03:48:34.214Z,78.67
2019-03-29T03:51:15.303Z,77.76
2019-03-29T03:53:56.684Z,77.59
2019-03-29T03:56:37.977Z,78.06
2019-03-29T03:59:18.674Z,77.56
2019-03-29T04:01:59.537Z,78.44
2019-03-29T04:04:40.872Z,78.86
2019-03-29T04:07:21.500Z,78.77
2019-03-29T04:10:02.165Z,78.29
2019-03-29T04:12:43.414Z,78.14
2019-03-29T04:15:23.925Z,76.97
2019-03-29T04:18:05.331Z,77.77
2019-03-29T04:20:46.312Z,75.85
2019-03-29T04:23:27.721Z,75.16
2019-03-29T04:26:08.696Z,75.02
2019-03-29T04:29:03.396Z,74.75
2019-03-29T04:31:31.383Z,74.95
2019-03-29T04:34:12.697Z,74.33
2019-03-29T04:36:53.643Z,72.91
2019-03-29T04:39:34.937Z,74.62
2019-03-29T04:42:16.213Z,73.30
2019-03-29T04:44:59.900Z,73.70
2019-03-29T04:47:39.572Z,74.20
2019-03-29T04:50:20.682Z,73.58
2019-03-29T04:59:02.288Z,71.01
2019-03-29T05:01:43.252Z,69.68
2019-03-29T05:04:23.952Z,70.02
2019-03-29T05:07:04.282Z,70.04
2019-03-29T05:09:45.502Z,70.23
2019-03-29T05:12:26.453Z,69.37
2019-03-29T05:15:07.402Z,68.97
2019-03-29T05:17:48.142Z,69.48
2019-03-29T05:20:29.639Z,68.80
2019-03-29T05:23:10.884Z,68.52
2019-03-29T05:25:52.203Z,67.32
2019-03-29T05:28:33.804Z,68.16
2019-03-29T05:31:15.333Z,67.22
2019-03-29T05:33:57.007Z,66.90
2019-03-29T05:36:37.993Z,66.49
2019-03-29T05:39:18.937Z,66.50
2019-03-29T05:42:00.543Z,66.54
2019-03-29T05:44:41.813Z,67.10
2019-03-29T05:47:23.083Z,67.45
2019-03-29T05:50:04.130Z,67.57
2019-03-29T05:52:45.654Z,66.32
2019-03-29T05:55:32.633Z,63.87
2019-03-29T05:58:07.888Z,64.81
2019-03-29T06:00:49.177Z,66.44
2019-03-29T06:03:30.446Z,65.43
2019-03-29T06:06:11.409Z,65.15
2019-03-29T06:08:52.043Z,65.05
2019-03-29T06:11:33.023Z,65.48
2019-03-29T06:14:13.964Z,63.94
2019-03-29T06:16:55.576Z,65.71
2019-03-29T06:19:36.849Z,67.28
2019-03-29T06:22:17.803Z,65.34
2019-03-29T06:24:58.775Z,63.91
2019-03-29T06:27:40.055Z,65.70
2019-03-29T06:30:21.008Z,65.36
2019-03-29T06:33:01.714Z,66.51
2019-03-29T06:35:42.612Z,67.51
2019-03-29T06:38:23.883Z,67.77
2019-03-29T06:41:05.190Z,67.40
2019-03-29T06:43:45.805Z,67.78
2019-03-29T06:46:26.293Z,65.64
2019-03-29T06:49:07.418Z,66.13
2019-03-29T06:51:48.366Z,64.69
2019-03-29T06:54:29.800Z,63.50
2019-03-29T06:57:10.846Z,62.66
2019-03-29T06:59:52.220Z,63.67
2019-03-29T07:02:33.480Z,64.96
2019-03-29T07:05:14.441Z,65.61
2019-03-29T07:07:55.142Z,66.42
2019-03-29T07:10:36.645Z,66.85
2019-03-29T07:13:17.989Z,65.37
2019-03-29T07:15:59.562Z,64.21
2019-03-29T07:18:40.844Z,63.26
2019-03-29T07:21:22.252Z,64.55
2019-03-29T07:24:03.503Z,66.14
2019-03-29T07:26:45.015Z,66.30
2019-03-29T07:29:26.325Z,66.51
2019-03-29T07:32:07.564Z,65.51
2019-03-29T07:34:49.250Z,63.72
2019-03-29T07:37:30.129Z,64.13
2019-03-29T07:40:11.085Z,63.40
2019-03-29T07:42:52.377Z,63.64
2019-03-29T07:45:33.113Z,62.99
2019-03-29T07:48:14.370Z,62.60
2019-03-29T07:50:55.886Z,63.39
2019-03-29T07:53:37.184Z,63.55
2019-03-29T07:56:18.134Z,62.67
2019-03-29T07:58:59.080Z,62.98
2019-03-29T08:01:40.309Z,61.56
2019-03-29T08:04:21.741Z,62.06
2019-03-29T08:07:03.239Z,61.89
2019-03-29T08:09:44.844Z,61.98
2019-03-29T08:12:25.985Z,60.52
2019-03-29T08:15:09.236Z,60.41
2019-03-29T08:17:49.081Z,60.23
2019-03-29T08:20:41.673Z,61.55
2019-03-29T08:23:11.873Z,60.79
2019-03-29T08:25:52.845Z,60.34
2019-03-29T08:28:34.304Z,61.21
2019-03-29T08:31:15.724Z,60.60
2019-03-29T08:33:57.067Z,62.05
2019-03-29T08:36:37.964Z,61.86
2019-03-29T08:39:27.969Z,60.72
2019-03-29T08:42:00.828Z,61.10
2019-03-29T08:44:42.199Z,60.15
2019-03-29T08:47:23.732Z,61.62
2019-03-29T08:50:04.083Z,60.07
2019-03-29T08:52:44.778Z,61.34
2019-03-29T08:55:25.838Z,59.63
2019-03-29T08:58:06.949Z,61.78
2019-03-29T09:00:48.216Z,60.42
2019-03-29T09:03:29.821Z,59.41
2019-03-29T09:06:11.445Z,61.53
2019-03-29T09:08:52.377Z,59.62
2019-03-29T09:11:33.326Z,60.41
2019-03-29T09:14:14.921Z,60.79
2019-03-29T09:16:55.955Z,61.49
2019-03-29T09:19:37.500Z,61.34
2019-03-29T09:22:17.881Z,60.73
2019-03-29T09:24:59.089Z,61.85
2019-03-29T09:27:39.694Z,61.79
2019-03-29T09:30:20.282Z,60.72
2019-03-29T09:33:01.339Z,61.85
2019-03-29T09:35:42.954Z,62.19
2019-03-29T09:38:23.624Z,62.06
2019-03-29T09:41:04.547Z,63.50
2019-03-29T09:43:45.805Z,63.29
2019-03-29T09:46:27.083Z,62.88
2019-03-29T09:49:08.481Z,62.19
2019-03-29T09:51:49.664Z,62.01
2019-03-29T09:54:31.253Z,62.68
2019-03-29T09:57:15.502Z,62.61
2019-03-29T09:59:54.788Z,61.43
2019-03-29T10:02:35.720Z,61.51
2019-03-29T10:05:19.653Z,60.79
2019-03-29T10:07:58.289Z,60.54
2019-03-29T10:10:39.239Z,60.35
2019-03-29T10:13:20.215Z,60.73
2019-03-29T10:16:01.358Z,60.77
2019-03-29T10:18:42.442Z,60.28
2019-03-29T10:21:23.092Z,60.23
2019-03-29T10:24:03.752Z,59.93
2019-03-29T10:26:44.434Z,60.33
2019-03-29T10:29:25.716Z,61.38
2019-03-29T10:32:09.390Z,59.06
2019-03-29T10:34:48.461Z,59.13
2019-03-29T10:37:29.496Z,58.31
2019-03-29T10:40:10.393Z,58.84
2019-03-29T10:42:57.485Z,58.76
2019-03-29T10:45:39.495Z,57.75
2019-03-29T10:48:15.564Z,57.60
2019-03-29T10:50:56.584Z,57.29
2019-03-29T10:53:37.226Z,58.08
2019-03-29T10:56:18.032Z,58.34
2019-03-29T10:58:59.481Z,58.96
2019-03-29T11:01:41.007Z,58.18
2019-03-29T11:04:21.721Z,57.79
2019-03-29T11:07:02.090Z,57.68
2019-03-29T11:09:43.574Z,57.58
2019-03-29T11:12:24.702Z,57.05
2019-03-29T11:15:06.778Z,57.21
2019-03-29T11:17:47.732Z,57.31
2019-03-29T11:20:29.332Z,57.16
2019-03-29T11:23:10.617Z,57.22
2019-03-29T11:25:51.096Z,58.02
2019-03-29T11:28:31.890Z,57.06
2019-03-29T11:31:13.137Z,58.23
2019-03-29T11:33:54.182Z,57.75
2019-03-29T11:36:36.057Z,58.02
2019-03-29T11:39:17.011Z,58.30
2019-03-29T11:41:57.960Z,58.18
2019-03-29T11:44:38.922Z,58.55
2019-03-29T11:47:20.531Z,59.78
2019-03-29T11:50:01.240Z,59.81
2019-03-29T11:52:42.121Z,60.55
2019-03-29T11:55:23.100Z,59.98
2019-03-29T11:58:04.363Z,61.29
2019-03-29T12:00:45.324Z,60.84
2019-03-29T12:03:26.083Z,61.98
2019-03-29T12:06:07.016Z,61.79
2019-03-29T12:08:47.897Z,61.55
2019-03-29T12:11:29.495Z,61.76
2019-03-29T12:14:10.457Z,62.29
2019-03-29T12:16:51.727Z,62.98
2019-03-29T12:19:32.711Z,64.50
2019-03-29T12:22:13.981Z,64.82
2019-03-29T12:24:55.571Z,66.17
2019-03-29T12:27:36.853Z,67.29
2019-03-29T12:30:30.677Z,67.96
2019-03-29T12:32:59.214Z,68.71
2019-03-29T12:35:40.117Z,69.72
2019-03-29T12:38:21.001Z,70.25
2019-03-29T12:41:01.323Z,70.94
2019-03-29T12:43:54.858Z,71.43
2019-03-29T12:46:23.574Z,71.51
2019-03-29T12:49:04.338Z,71.99
2019-03-29T12:51:46.666Z,71.74
2019-03-29T12:54:26.360Z,71.83
2019-03-29T12:57:07.402Z,71.77
2019-03-29T12:59:48.138Z,71.80
2019-03-29T13:02:28.694Z,71.89
2019-03-29T13:05:09.336Z,71.95
2019-03-29T13:07:52.966Z,71.68
2019-03-29T13:10:31.982Z,72.00
2019-03-29T13:13:13.358Z,72.42
2019-03-29T13:15:55.091Z,71.95
2019-03-29T13:18:35.750Z,72.40
2019-03-29T13:21:16.300Z,72.56
2019-03-29T13:23:57.339Z,72.41
2019-03-29T13:26:38.056Z,72.36
2019-03-29T13:29:19.570Z,72.26
2019-03-29T13:31:59.814Z,72.20
2019-03-29T13:34:41.495Z,72.37
2019-03-29T13:37:24.782Z,72.70
2019-03-29T13:40:05.421Z,72.99
2019-03-29T13:42:46.285Z,72.97
2019-03-29T13:45:28.201Z,74.90
2019-03-29T13:48:09.471Z,75.43
2019-03-29T13:50:50.342Z,76.02
2019-03-29T13:53:36.659Z,76.66
2019-03-29T13:56:18.072Z,77.05
2019-03-29T13:58:58.565Z,78.12
2019-03-29T14:01:39.081Z,78.77
2019-03-29T14:04:19.684Z,79.33
2019-03-29T14:07:00.622Z,79.76
2019-03-29T14:09:44.323Z,80.21
2019-03-29T14:12:24.970Z,81.04
2019-03-29T14:15:05.971Z,81.11
2019-03-29T14:17:46.592Z,81.51
2019-03-29T14:20:27.409Z,81.84
2019-03-29T14:23:08.712Z,82.15
2019-03-29T14:25:49.143Z,82.59
2019-03-29T14:28:30.297Z,82.80
2019-03-29T14:31:10.793Z,82.86
2019-03-29T14:33:51.953Z,82.92
2019-03-29T14:36:32.387Z,82.75
2019-03-29T14:39:13.493Z,83.29
2019-03-29T14:41:54.512Z,83.11
2019-03-29T14:44:35.589Z,82.81
2019-03-29T14:47:16.898Z,82.90
2019-03-29T14:49:57.273Z,83.00
2019-03-29T14:52:37.825Z,83.21
2019-03-29T14:55:18.306Z,83.31
2019-03-29T14:57:58.778Z,84.24
2019-03-29T15:00:39.363Z,84.32
2019-03-29T15:03:20.527Z,84.57
2019-03-29T15:06:01.851Z,84.85
2019-03-29T15:08:41.822Z,85.20
2019-03-29T15:11:23.101Z,85.93
2019-03-29T15:14:03.924Z,85.86
2019-03-29T15:16:44.364Z,86.36
2019-03-29T15:19:24.903Z,86.53
2019-03-29T15:22:05.733Z,86.98
2019-03-29T15:24:46.839Z,86.81
2019-03-29T15:27:28.202Z,86.85
2019-03-29T15:30:08.863Z,87.09
2019-03-29T15:32:50.765Z,87.59
2019-03-29T15:35:31.839Z,87.48
2019-03-29T15:38:15.406Z,87.56
2019-03-29T15:40:58.448Z,87.15
2019-03-29T15:43:39.464Z,86.92
2019-03-29T15:46:21.130Z,86.53
2019-03-29T15:49:05.064Z,86.47
2019-03-29T15:51:45.702Z,86.23
2019-03-29T15:54:30.898Z,86.75
2019-03-29T15:57:11.851Z,87.04
2019-03-29T15:59:52.529Z,87.12
2019-03-29T16:02:38.098Z,87.85
2019-03-29T16:05:25.383Z,87.97
2019-03-29T16:08:08.551Z,87.56
2019-03-29T16:10:51.082Z,87.81
2019-03-29T16:13:33.801Z,88.78
2019-03-29T16:16:19.686Z,88.61
2019-03-29T16:19:01.504Z,88.56
2019-03-29T16:21:45.355Z,88.02
2019-03-29T16:24:29.693Z,88.18
2019-03-29T16:27:15.340Z,87.81
2019-03-29T16:29:58.716Z,87.56
2019-03-29T16:32:43.566Z,87.20
2019-03-29T16:35:25.244Z,87.10
2019-03-29T16:38:06.056Z,87.16
2019-03-29T16:40:46.565Z,87.05
2019-03-29T16:43:27.501Z,87.00
2019-03-29T16:46:15.851Z,86.73
2019-03-29T16:48:59.106Z,86.54
2019-03-29T16:51:42.839Z,86.72
2019-03-29T16:54:30.794Z,86.48
2019-03-29T16:59:59.858Z,86.12
2019-03-29T17:02:41.175Z,86.08
2019-03-29T17:05:22.670Z,86.57
2019-03-29T17:08:05.265Z,86.44
2019-03-29T17:13:33.160Z,86.35
2019-03-29T17:16:14.440Z,86.31
2019-03-29T17:18:54.960Z,86.28
2019-03-29T17:21:35.439Z,86.85
2019-03-29T17:26:35.444Z,87.67
2019-03-29T17:29:16.046Z,87.71
2019-03-29T17:31:56.972Z,87.41
2019-03-29T17:34:37.534Z,87.86
2019-03-29T17:37:17.937Z,88.14
2019-03-29T17:39:58.442Z,88.64
2019-03-29T17:42:39.413Z,88.30
2019-03-29T17:45:20.270Z,88.14
2019-03-29T17:48:01.489Z,87.54
2019-03-29T17:50:42.226Z,87.27
2019-03-29T17:53:22.542Z,87.19
2019-03-29T17:56:03.272Z,87.23
2019-03-29T17:58:43.613Z,86.77
2019-03-29T18:01:24.697Z,86.83
2019-03-29T18:04:05.644Z,86.87
2019-03-29T18:06:47.033Z,87.02
2019-03-29T18:09:26.900Z,86.92
2019-03-29T18:12:11.048Z,87.12
2019-03-29T18:14:48.432Z,87.18
2019-03-29T18:17:29.066Z,86.84
2019-03-29T18:20:09.773Z,86.57
2019-03-29T18:22:50.538Z,86.77
2019-03-29T18:25:31.471Z,87.01
2019-03-29T18:28:12.056Z,87.66
2019-03-29T18:30:53.058Z,88.05
2019-03-29T18:33:33.241Z,88.37
2019-03-29T18:36:14.281Z,89.03
2019-03-29T18:38:55.253Z,89.23
2019-03-29T18:41:35.529Z,88.91
2019-03-29T18:44:16.521Z,88.61
2019-03-29T18:46:56.872Z,89.09
2019-03-29T18:49:37.630Z,88.34
2019-03-29T18:52:17.982Z,88.16
2019-03-29T18:54:58.545Z,88.01
2019-03-29T18:57:39.735Z,88.08
2019-03-29T19:00:20.221Z,87.91
2019-03-29T19:03:01.189Z,87.65
2019-03-29T19:05:41.962Z,87.36
2019-03-29T19:08:22.185Z,87.43
2019-03-29T19:11:03.248Z,87.29
2019-03-29T19:13:43.887Z,87.10
2019-03-29T19:16:25.495Z,88.01
2019-03-29T19:19:10.174Z,88.41
2019-03-29T19:21:48.700Z,88.97
2019-03-29T19:24:29.734Z,89.29
2019-03-29T19:27:10.919Z,89.69
2019-03-29T19:29:52.065Z,90.34
2019-03-29T19:32:32.862Z,90.46
2019-03-29T19:35:14.790Z,90.93
2019-03-29T19:37:56.166Z,90.99
2019-03-29T19:40:37.054Z,91.18
2019-03-29T19:43:18.285Z,91.01
2019-03-29T19:45:59.669Z,91.14
2019-03-29T19:48:41.201Z,91.28
2019-03-29T19:51:22.127Z,91.18
2019-03-29T19:54:07.491Z,91.10
2019-03-29T19:56:45.736Z,91.36
2019-03-29T19:59:27.275Z,91.73
2019-03-29T20:02:07.975Z,91.44
2019-03-29T20:04:48.593Z,91.41
2019-03-29T20:07:29.800Z,92.05
2019-03-29T20:10:11.084Z,92.17
2019-03-29T20:12:52.684Z,92.26
2019-03-29T20:15:33.334Z,91.88
2019-03-29T20:18:14.359Z,92.07
2019-03-29T20:20:55.576Z,92.37
2019-03-29T20:23:36.841Z,91.90
2019-03-29T20:26:18.832Z,92.46
2019-03-29T20:29:00.045Z,92.35
2019-03-29T20:31:41.083Z,92.69
2019-03-29T20:34:21.963Z,92.09
2019-03-29T20:37:03.264Z,92.26
2019-03-29T20:39:44.540Z,92.08
2019-03-29T20:42:25.804Z,92.41
2019-03-29T20:45:06.230Z,92.44
2019-03-29T20:47:46.839Z,92.73
2019-03-29T20:50:27.778Z,92.75
2019-03-29T20:53:07.773Z,92.39
2019-03-29T20:55:48.414Z,92.00
2019-03-29T20:58:28.936Z,91.80
2019-03-29T21:01:09.271Z,91.80
2019-03-29T21:03:49.850Z,92.62
2019-03-29T21:06:30.591Z,91.75
2019-03-29T21:09:10.609Z,92.44
2019-03-29T21:11:50.904Z,91.86
2019-03-29T21:14:31.273Z,91.99
2019-03-29T21:17:11.398Z,91.92
2019-03-29T21:19:52.228Z,91.23
2019-03-29T21:22:32.551Z,91.26
2019-03-29T21:25:12.584Z,91.01
2019-03-29T21:27:53.382Z,90.99
2019-03-29T21:30:34.213Z,90.85
2019-03-29T21:33:14.814Z,91.16
2019-03-29T21:35:55.587Z,90.26
2019-03-29T21:38:36.192Z,89.94
2019-03-29T21:41:16.758Z,89.97
2019-03-29T21:43:57.380Z,89.31
2019-03-29T21:46:38.294Z,89.45
2019-03-29T21:49:18.930Z,89.79
2019-03-29T21:51:59.610Z,90.71
2019-03-29T21:54:40.217Z,90.51
2019-03-29T21:57:20.947Z,90.28
2019-03-29T22:00:01.809Z,90.02
2019-03-29T22:02:42.863Z,89.86
2019-03-29T22:05:23.743Z,89.47
2019-03-29T22:08:04.422Z,90.23
2019-03-29T22:10:45.025Z,90.75
2019-03-29T22:13:25.670Z,91.78
2019-03-29T22:16:06.934Z,91.96
2019-03-29T22:18:47.901Z,92.05
2019-03-29T22:21:28.857Z,92.20
2019-03-29T22:24:09.812Z,92.74
2019-03-29T22:26:50.454Z,92.26
2019-03-29T22:29:31.123Z,92.36
2019-03-29T22:32:12.363Z,92.69
2019-03-29T22:34:53.411Z,93.02
2019-03-29T22:37:34.290Z,92.99
2019-03-29T22:40:15.259Z,92.71
2019-03-29T22:42:55.885Z,93.16
2019-03-29T22:45:36.537Z,93.25
2019-03-29T22:48:17.801Z,93.07
2019-03-29T22:50:58.180Z,93.28
2019-03-29T22:53:38.901Z,93.68
2019-03-29T22:56:19.814Z,94.15
2019-03-29T22:59:00.695Z,93.82
2019-03-29T23:01:41.962Z,93.80
2019-03-29T23:04:23.018Z,94.34
2019-03-29T23:07:04.671Z,94.39
2019-03-29T23:09:45.812Z,94.09
2019-03-29T23:12:27.094Z,94.64
2019-03-29T23:15:08.069Z,94.53
2019-03-29T23:17:49.011Z,94.73
2019-03-29T23:20:30.296Z,94.46
2019-03-29T23:23:11.575Z,94.59
2019-03-29T23:25:52.930Z,95.14
2019-03-29T23:28:33.832Z,94.67
2019-03-29T23:31:14.610Z,95.16
2019-03-29T23:33:55.582Z,95.22
2019-03-29T23:36:36.693Z,95.27
2019-03-29T23:39:18.302Z,95.30
2019-03-29T23:41:59.373Z,95.33
2019-03-29T23:44:40.537Z,94.90
2019-03-29T23:47:21.193Z,95.39
2019-03-29T23:50:02.383Z,95.43
2019-03-29T23:52:43.752Z,95.39
2019-03-29T23:55:25.035Z,95.15
2019-03-29T23:58:05.976Z,95.31
